sensor_id;sensor_type;location;lat;lon;timestamp;P1;durP1;ratioP1;P2;durP2;ratioP2
19179;SDS011;9722;48.754;8.868;2024-01-30T00:00:26;7.13;;;5.03;;
19179;SDS011;9722;48.754;8.868;2024-01-30T00:03:46;6.30;;;4.60;;
19179;SDS011;9722;48.754;8.868;2024-01-30T00:07:07;5.53;;;5.03;;
19179;SDS011;9722;48.754;8.868;2024-01-30T00:10:27;5.27;;;4.77;;
19179;SDS011;9722;48.754;8.868;2024-01-30T00:13:48;5.60;;;4.30;;
19179;SDS011;9722;48.754;8.868;2024-01-30T00:17:09;5.23;;;4.30;;
19179;SDS011;9722;48.754;8.868;2024-01-30T00:20:29;5.93;;;4.57;;
19179;SDS011;9722;48.754;8.868;2024-01-30T00:23:50;6.00;;;4.87;;
19179;SDS011;9722;48.754;8.868;2024-01-30T00:27:10;5.03;;;4.53;;
19179;SDS011;9722;48.754;8.868;2024-01-30T00:30:31;6.00;;;4.47;;
19179;SDS011;9722;48.754;8.868;2024-01-30T00:33:51;5.83;;;4.60;;
19179;SDS011;9722;48.754;8.868;2024-01-30T00:37:12;7.57;;;4.83;;
19179;SDS011;9722;48.754;8.868;2024-01-30T00:40:32;4.77;;;4.27;;
19179;SDS011;9722;48.754;8.868;2024-01-30T00:43:53;4.63;;;4.23;;
19179;SDS011;9722;48.754;8.868;2024-01-30T00:47:13;6.40;;;4.83;;
19179;SDS011;9722;48.754;8.868;2024-01-30T00:50:34;6.07;;;4.83;;
19179;SDS011;9722;48.754;8.868;2024-01-30T00:53:54;7.50;;;5.07;;
19179;SDS011;9722;48.754;8.868;2024-01-30T00:57:15;4.97;;;4.47;;
19179;SDS011;9722;48.754;8.868;2024-01-30T01:00:36;5.53;;;4.83;;
19179;SDS011;9722;48.754;8.868;2024-01-30T01:03:57;6.50;;;4.60;;
19179;SDS011;9722;48.754;8.868;2024-01-30T01:07:18;7.07;;;5.03;;
19179;SDS011;9722;48.754;8.868;2024-01-30T01:10:38;5.27;;;4.33;;
19179;SDS011;9722;48.754;8.868;2024-01-30T01:13:59;6.30;;;4.40;;
19179;SDS011;9722;48.754;8.868;2024-01-30T01:17:19;8.53;;;4.57;;
19179;SDS011;9722;48.754;8.868;2024-01-30T01:20:40;5.27;;;4.77;;
19179;SDS011;9722;48.754;8.868;2024-01-30T01:24:00;6.83;;;5.50;;
19179;SDS011;9722;48.754;8.868;2024-01-30T01:27:21;6.50;;;5.90;;
19179;SDS011;9722;48.754;8.868;2024-01-30T01:30:41;6.53;;;5.73;;
19179;SDS011;9722;48.754;8.868;2024-01-30T01:34:02;6.27;;;4.70;;
19179;SDS011;9722;48.754;8.868;2024-01-30T01:37:22;5.03;;;4.53;;
19179;SDS011;9722;48.754;8.868;2024-01-30T01:40:46;4.77;;;4.27;;
19179;SDS011;9722;48.754;8.868;2024-01-30T01:44:07;5.30;;;4.70;;
19179;SDS011;9722;48.754;8.868;2024-01-30T01:47:28;5.80;;;4.13;;
19179;SDS011;9722;48.754;8.868;2024-01-30T01:50:48;4.73;;;4.30;;
19179;SDS011;9722;48.754;8.868;2024-01-30T01:54:09;7.43;;;4.20;;
19179;SDS011;9722;48.754;8.868;2024-01-30T01:57:31;5.40;;;4.13;;
19179;SDS011;9722;48.754;8.868;2024-01-30T02:00:51;5.60;;;4.43;;
19179;SDS011;9722;48.754;8.868;2024-01-30T02:04:12;5.23;;;4.07;;
19179;SDS011;9722;48.754;8.868;2024-01-30T02:07:33;6.57;;;4.27;;
19179;SDS011;9722;48.754;8.868;2024-01-30T02:10:53;5.77;;;3.90;;
19179;SDS011;9722;48.754;8.868;2024-01-30T02:14:14;4.10;;;3.70;;
19179;SDS011;9722;48.754;8.868;2024-01-30T02:17:34;4.83;;;4.13;;
19179;SDS011;9722;48.754;8.868;2024-01-30T02:20:56;4.13;;;3.73;;
19179;SDS011;9722;48.754;8.868;2024-01-30T02:24:18;5.87;;;3.80;;
19179;SDS011;9722;48.754;8.868;2024-01-30T02:27:39;5.47;;;3.63;;
19179;SDS011;9722;48.754;8.868;2024-01-30T02:30:59;4.40;;;3.83;;
19179;SDS011;9722;48.754;8.868;2024-01-30T02:34:19;3.93;;;3.47;;
19179;SDS011;9722;48.754;8.868;2024-01-30T02:37:41;5.27;;;4.10;;
19179;SDS011;9722;48.754;8.868;2024-01-30T02:41:01;5.10;;;3.63;;
19179;SDS011;9722;48.754;8.868;2024-01-30T02:44:22;4.43;;;3.73;;
19179;SDS011;9722;48.754;8.868;2024-01-30T02:47:42;5.87;;;3.87;;
19179;SDS011;9722;48.754;8.868;2024-01-30T02:51:03;5.07;;;3.10;;
19179;SDS011;9722;48.754;8.868;2024-01-30T02:54:23;3.67;;;3.33;;
19179;SDS011;9722;48.754;8.868;2024-01-30T02:57:44;4.20;;;3.80;;
19179;SDS011;9722;48.754;8.868;2024-01-30T03:01:04;6.10;;;2.93;;
19179;SDS011;9722;48.754;8.868;2024-01-30T03:04:26;3.73;;;3.17;;
19179;SDS011;9722;48.754;8.868;2024-01-30T03:07:46;3.93;;;3.37;;
19179;SDS011;9722;48.754;8.868;2024-01-30T03:11:07;3.73;;;3.23;;
19179;SDS011;9722;48.754;8.868;2024-01-30T03:14:28;5.33;;;3.60;;
19179;SDS011;9722;48.754;8.868;2024-01-30T03:17:50;5.13;;;4.47;;
19179;SDS011;9722;48.754;8.868;2024-01-30T03:21:11;3.67;;;3.17;;
19179;SDS011;9722;48.754;8.868;2024-01-30T03:24:31;3.47;;;3.13;;
19179;SDS011;9722;48.754;8.868;2024-01-30T03:27:52;3.07;;;2.63;;
19179;SDS011;9722;48.754;8.868;2024-01-30T03:31:13;2.87;;;2.67;;
19179;SDS011;9722;48.754;8.868;2024-01-30T03:34:35;3.07;;;2.80;;
19179;SDS011;9722;48.754;8.868;2024-01-30T03:37:56;3.70;;;3.10;;
19179;SDS011;9722;48.754;8.868;2024-01-30T03:41:16;6.27;;;3.33;;
19179;SDS011;9722;48.754;8.868;2024-01-30T03:44:37;5.43;;;4.13;;
19179;SDS011;9722;48.754;8.868;2024-01-30T03:47:57;3.73;;;3.43;;
19179;SDS011;9722;48.754;8.868;2024-01-30T03:51:18;4.90;;;4.43;;
19179;SDS011;9722;48.754;8.868;2024-01-30T03:54:38;4.10;;;3.77;;
19179;SDS011;9722;48.754;8.868;2024-01-30T03:57:59;3.60;;;3.10;;
19179;SDS011;9722;48.754;8.868;2024-01-30T04:01:19;4.60;;;3.70;;
19179;SDS011;9722;48.754;8.868;2024-01-30T04:04:40;19.77;;;9.80;;
19179;SDS011;9722;48.754;8.868;2024-01-30T04:08:00;12.97;;;7.57;;
19179;SDS011;9722;48.754;8.868;2024-01-30T04:11:21;8.17;;;4.67;;
19179;SDS011;9722;48.754;8.868;2024-01-30T04:14:42;3.93;;;3.53;;
19179;SDS011;9722;48.754;8.868;2024-01-30T04:18:02;3.47;;;3.17;;
19179;SDS011;9722;48.754;8.868;2024-01-30T04:21:23;4.63;;;3.17;;
19179;SDS011;9722;48.754;8.868;2024-01-30T04:24:43;4.03;;;3.60;;
19179;SDS011;9722;48.754;8.868;2024-01-30T04:28:04;4.30;;;3.23;;
19179;SDS011;9722;48.754;8.868;2024-01-30T04:31:25;3.43;;;2.93;;
19179;SDS011;9722;48.754;8.868;2024-01-30T04:34:45;4.07;;;3.53;;
19179;SDS011;9722;48.754;8.868;2024-01-30T04:38:06;4.43;;;3.20;;
19179;SDS011;9722;48.754;8.868;2024-01-30T04:41:26;3.73;;;3.03;;
19179;SDS011;9722;48.754;8.868;2024-01-30T04:44:51;3.50;;;2.90;;
19179;SDS011;9722;48.754;8.868;2024-01-30T04:48:11;4.87;;;3.83;;
19179;SDS011;9722;48.754;8.868;2024-01-30T04:51:32;9.27;;;4.50;;
19179;SDS011;9722;48.754;8.868;2024-01-30T04:54:53;6.67;;;4.30;;
19179;SDS011;9722;48.754;8.868;2024-01-30T04:58:13;5.47;;;3.57;;
19179;SDS011;9722;48.754;8.868;2024-01-30T05:01:34;5.33;;;4.20;;
19179;SDS011;9722;48.754;8.868;2024-01-30T05:04:54;6.57;;;4.67;;
19179;SDS011;9722;48.754;8.868;2024-01-30T05:08:15;6.67;;;4.03;;
19179;SDS011;9722;48.754;8.868;2024-01-30T05:11:39;4.23;;;3.83;;
19179;SDS011;9722;48.754;8.868;2024-01-30T05:15:00;5.00;;;4.27;;
19179;SDS011;9722;48.754;8.868;2024-01-30T05:18:21;4.17;;;3.53;;
19179;SDS011;9722;48.754;8.868;2024-01-30T05:21:41;4.00;;;3.50;;
19179;SDS011;9722;48.754;8.868;2024-01-30T05:25:02;3.57;;;3.33;;
19179;SDS011;9722;48.754;8.868;2024-01-30T05:28:23;5.93;;;3.87;;
19179;SDS011;9722;48.754;8.868;2024-01-30T05:31:44;4.20;;;3.40;;
19179;SDS011;9722;48.754;8.868;2024-01-30T05:35:04;3.73;;;3.43;;
19179;SDS011;9722;48.754;8.868;2024-01-30T05:38:25;3.53;;;3.23;;
19179;SDS011;9722;48.754;8.868;2024-01-30T05:41:46;7.57;;;3.53;;
19179;SDS011;9722;48.754;8.868;2024-01-30T05:45:06;3.43;;;3.07;;
19179;SDS011;9722;48.754;8.868;2024-01-30T05:48:28;4.13;;;3.43;;
19179;SDS011;9722;48.754;8.868;2024-01-30T05:51:48;3.70;;;3.40;;
19179;SDS011;9722;48.754;8.868;2024-01-30T05:55:09;3.63;;;3.20;;
19179;SDS011;9722;48.754;8.868;2024-01-30T05:58:30;3.47;;;2.70;;
19179;SDS011;9722;48.754;8.868;2024-01-30T06:01:51;3.27;;;2.97;;
19179;SDS011;9722;48.754;8.868;2024-01-30T06:05:11;3.60;;;3.30;;
19179;SDS011;9722;48.754;8.868;2024-01-30T06:08:32;2.90;;;2.70;;
19179;SDS011;9722;48.754;8.868;2024-01-30T06:11:52;5.50;;;3.20;;
19179;SDS011;9722;48.754;8.868;2024-01-30T06:15:13;4.03;;;2.77;;
19179;SDS011;9722;48.754;8.868;2024-01-30T06:18:33;2.47;;;2.27;;
19179;SDS011;9722;48.754;8.868;2024-01-30T06:21:54;4.57;;;3.53;;
19179;SDS011;9722;48.754;8.868;2024-01-30T06:25:14;3.37;;;2.97;;
19179;SDS011;9722;48.754;8.868;2024-01-30T06:28:36;2.73;;;2.53;;
19179;SDS011;9722;48.754;8.868;2024-01-30T06:31:56;3.07;;;2.87;;
19179;SDS011;9722;48.754;8.868;2024-01-30T06:35:17;2.90;;;2.57;;
19179;SDS011;9722;48.754;8.868;2024-01-30T06:38:37;3.57;;;2.40;;
19179;SDS011;9722;48.754;8.868;2024-01-30T06:41:58;3.47;;;2.70;;
19179;SDS011;9722;48.754;8.868;2024-01-30T06:45:18;2.33;;;2.13;;
19179;SDS011;9722;48.754;8.868;2024-01-30T06:48:39;4.63;;;3.50;;
19179;SDS011;9722;48.754;8.868;2024-01-30T06:52:00;6.77;;;3.33;;
19179;SDS011;9722;48.754;8.868;2024-01-30T06:55:20;2.50;;;2.30;;
19179;SDS011;9722;48.754;8.868;2024-01-30T06:58:41;2.73;;;2.50;;
19179;SDS011;9722;48.754;8.868;2024-01-30T07:02:01;4.73;;;2.47;;
19179;SDS011;9722;48.754;8.868;2024-01-30T07:05:22;3.57;;;3.27;;
19179;SDS011;9722;48.754;8.868;2024-01-30T07:08:42;3.40;;;3.10;;
19179;SDS011;9722;48.754;8.868;2024-01-30T07:12:03;3.97;;;2.60;;
19179;SDS011;9722;48.754;8.868;2024-01-30T07:15:24;6.37;;;3.00;;
19179;SDS011;9722;48.754;8.868;2024-01-30T07:18:44;4.63;;;3.63;;
19179;SDS011;9722;48.754;8.868;2024-01-30T07:22:05;3.10;;;2.80;;
19179;SDS011;9722;48.754;8.868;2024-01-30T07:25:25;3.77;;;3.40;;
19179;SDS011;9722;48.754;8.868;2024-01-30T07:28:49;4.97;;;3.37;;
19179;SDS011;9722;48.754;8.868;2024-01-30T07:32:10;3.77;;;3.33;;
19179;SDS011;9722;48.754;8.868;2024-01-30T07:35:31;3.13;;;2.93;;
19179;SDS011;9722;48.754;8.868;2024-01-30T07:38:51;5.93;;;3.13;;
19179;SDS011;9722;48.754;8.868;2024-01-30T07:42:14;3.20;;;2.90;;
19179;SDS011;9722;48.754;8.868;2024-01-30T07:45:34;3.40;;;3.10;;
19179;SDS011;9722;48.754;8.868;2024-01-30T07:48:55;4.30;;;3.63;;
19179;SDS011;9722;48.754;8.868;2024-01-30T07:52:17;5.57;;;3.20;;
19179;SDS011;9722;48.754;8.868;2024-01-30T07:55:37;4.80;;;3.57;;
19179;SDS011;9722;48.754;8.868;2024-01-30T07:58:58;5.17;;;3.50;;
19179;SDS011;9722;48.754;8.868;2024-01-30T08:02:19;3.93;;;3.63;;
19179;SDS011;9722;48.754;8.868;2024-01-30T08:05:40;7.00;;;4.60;;
19179;SDS011;9722;48.754;8.868;2024-01-30T08:09:00;7.17;;;4.90;;
19179;SDS011;9722;48.754;8.868;2024-01-30T08:12:21;4.23;;;3.87;;
19179;SDS011;9722;48.754;8.868;2024-01-30T08:15:41;4.93;;;4.53;;
19179;SDS011;9722;48.754;8.868;2024-01-30T08:19:02;6.47;;;5.87;;
19179;SDS011;9722;48.754;8.868;2024-01-30T08:22:23;4.77;;;4.20;;
19179;SDS011;9722;48.754;8.868;2024-01-30T08:25:43;4.63;;;4.23;;
19179;SDS011;9722;48.754;8.868;2024-01-30T08:29:04;5.40;;;4.90;;
19179;SDS011;9722;48.754;8.868;2024-01-30T08:32:24;4.37;;;3.97;;
19179;SDS011;9722;48.754;8.868;2024-01-30T08:35:45;7.77;;;4.63;;
19179;SDS011;9722;48.754;8.868;2024-01-30T08:39:05;4.43;;;3.90;;
19179;SDS011;9722;48.754;8.868;2024-01-30T08:42:26;5.90;;;4.57;;
19179;SDS011;9722;48.754;8.868;2024-01-30T08:45:46;8.10;;;4.30;;
19179;SDS011;9722;48.754;8.868;2024-01-30T08:49:07;5.50;;;4.10;;
19179;SDS011;9722;48.754;8.868;2024-01-30T08:52:28;4.63;;;3.90;;
19179;SDS011;9722;48.754;8.868;2024-01-30T08:55:48;4.27;;;3.87;;
19179;SDS011;9722;48.754;8.868;2024-01-30T08:59:09;5.30;;;4.50;;
19179;SDS011;9722;48.754;8.868;2024-01-30T09:02:29;4.63;;;3.90;;
19179;SDS011;9722;48.754;8.868;2024-01-30T09:05:49;4.90;;;4.40;;
19179;SDS011;9722;48.754;8.868;2024-01-30T09:09:10;4.37;;;4.07;;
19179;SDS011;9722;48.754;8.868;2024-01-30T09:12:30;4.00;;;3.60;;
19179;SDS011;9722;48.754;8.868;2024-01-30T09:15:51;6.23;;;4.77;;
19179;SDS011;9722;48.754;8.868;2024-01-30T09:19:12;5.70;;;4.73;;
19179;SDS011;9722;48.754;8.868;2024-01-30T09:22:33;4.33;;;3.93;;
19179;SDS011;9722;48.754;8.868;2024-01-30T09:25:53;5.87;;;5.07;;
19179;SDS011;9722;48.754;8.868;2024-01-30T09:29:14;4.90;;;4.50;;
19179;SDS011;9722;48.754;8.868;2024-01-30T09:32:34;7.20;;;4.80;;
19179;SDS011;9722;48.754;8.868;2024-01-30T09:35:55;5.40;;;4.90;;
19179;SDS011;9722;48.754;8.868;2024-01-30T09:39:15;5.90;;;4.33;;
19179;SDS011;9722;48.754;8.868;2024-01-30T09:42:36;5.37;;;4.87;;
19179;SDS011;9722;48.754;8.868;2024-01-30T09:45:57;5.63;;;5.13;;
19179;SDS011;9722;48.754;8.868;2024-01-30T09:49:20;6.93;;;5.57;;
19179;SDS011;9722;48.754;8.868;2024-01-30T09:52:42;6.30;;;5.70;;
19179;SDS011;9722;48.754;8.868;2024-01-30T09:56:04;5.87;;;5.27;;
19179;SDS011;9722;48.754;8.868;2024-01-30T09:59:25;5.07;;;4.57;;
19179;SDS011;9722;48.754;8.868;2024-01-30T10:02:45;5.73;;;5.23;;
19179;SDS011;9722;48.754;8.868;2024-01-30T10:06:07;5.67;;;4.37;;
19179;SDS011;9722;48.754;8.868;2024-01-30T10:09:31;6.07;;;5.50;;
19179;SDS011;9722;48.754;8.868;2024-01-30T10:12:53;7.40;;;6.80;;
19179;SDS011;9722;48.754;8.868;2024-01-30T10:16:14;7.40;;;5.57;;
19179;SDS011;9722;48.754;8.868;2024-01-30T10:19:37;5.53;;;4.30;;
19179;SDS011;9722;48.754;8.868;2024-01-30T10:23:01;5.00;;;4.20;;
19179;SDS011;9722;48.754;8.868;2024-01-30T10:26:22;6.60;;;4.03;;
19179;SDS011;9722;48.754;8.868;2024-01-30T10:29:43;4.57;;;3.80;;
19179;SDS011;9722;48.754;8.868;2024-01-30T10:33:03;8.20;;;4.97;;
19179;SDS011;9722;48.754;8.868;2024-01-30T10:36:26;5.37;;;4.87;;
19179;SDS011;9722;48.754;8.868;2024-01-30T10:39:49;5.43;;;4.93;;
19179;SDS011;9722;48.754;8.868;2024-01-30T10:43:12;5.33;;;4.83;;
19179;SDS011;9722;48.754;8.868;2024-01-30T10:46:37;8.60;;;4.77;;
19179;SDS011;9722;48.754;8.868;2024-01-30T10:49:59;6.77;;;4.27;;
19179;SDS011;9722;48.754;8.868;2024-01-30T10:53:20;6.67;;;4.67;;
19179;SDS011;9722;48.754;8.868;2024-01-30T10:56:42;13.87;;;6.73;;
19179;SDS011;9722;48.754;8.868;2024-01-30T11:00:07;8.33;;;6.50;;
19179;SDS011;9722;48.754;8.868;2024-01-30T11:03:33;6.27;;;5.70;;
19179;SDS011;9722;48.754;8.868;2024-01-30T11:06:56;6.70;;;5.77;;
19179;SDS011;9722;48.754;8.868;2024-01-30T11:10:16;7.33;;;6.70;;
19179;SDS011;9722;48.754;8.868;2024-01-30T11:13:37;6.67;;;6.07;;
19179;SDS011;9722;48.754;8.868;2024-01-30T11:16:58;8.27;;;5.87;;
19179;SDS011;9722;48.754;8.868;2024-01-30T11:20:25;6.37;;;5.30;;
19179;SDS011;9722;48.754;8.868;2024-01-30T11:23:47;7.33;;;5.60;;
19179;SDS011;9722;48.754;8.868;2024-01-30T11:27:10;7.00;;;6.27;;
19179;SDS011;9722;48.754;8.868;2024-01-30T11:30:31;6.23;;;5.63;;
19179;SDS011;9722;48.754;8.868;2024-01-30T11:33:52;7.67;;;6.47;;
19179;SDS011;9722;48.754;8.868;2024-01-30T11:37:13;5.90;;;5.40;;
19179;SDS011;9722;48.754;8.868;2024-01-30T11:40:37;9.47;;;5.80;;
19179;SDS011;9722;48.754;8.868;2024-01-30T11:43:58;8.60;;;6.17;;
19179;SDS011;9722;48.754;8.868;2024-01-30T11:47:18;7.57;;;6.10;;
19179;SDS011;9722;48.754;8.868;2024-01-30T11:50:39;6.73;;;6.10;;
19179;SDS011;9722;48.754;8.868;2024-01-30T11:54:04;8.03;;;6.03;;
19179;SDS011;9722;48.754;8.868;2024-01-30T11:57:26;11.20;;;6.00;;
19179;SDS011;9722;48.754;8.868;2024-01-30T12:00:56;14.60;;;6.63;;
19179;SDS011;9722;48.754;8.868;2024-01-30T12:04:17;11.20;;;6.10;;
19179;SDS011;9722;48.754;8.868;2024-01-30T12:07:38;10.90;;;6.13;;
19179;SDS011;9722;48.754;8.868;2024-01-30T12:10:58;9.03;;;5.80;;
19179;SDS011;9722;48.754;8.868;2024-01-30T12:14:21;9.93;;;6.30;;
19179;SDS011;9722;48.754;8.868;2024-01-30T12:17:43;7.57;;;5.40;;
19179;SDS011;9722;48.754;8.868;2024-01-30T12:21:03;8.90;;;5.67;;
19179;SDS011;9722;48.754;8.868;2024-01-30T12:24:25;5.37;;;4.87;;
19179;SDS011;9722;48.754;8.868;2024-01-30T12:27:47;6.07;;;5.17;;
19179;SDS011;9722;48.754;8.868;2024-01-30T12:31:12;6.40;;;5.80;;
19179;SDS011;9722;48.754;8.868;2024-01-30T12:34:32;5.87;;;5.27;;
19179;SDS011;9722;48.754;8.868;2024-01-30T12:37:53;5.43;;;5.03;;
19179;SDS011;9722;48.754;8.868;2024-01-30T12:41:13;6.10;;;5.60;;
19179;SDS011;9722;48.754;8.868;2024-01-30T12:44:34;5.57;;;5.07;;
19179;SDS011;9722;48.754;8.868;2024-01-30T12:47:54;5.70;;;5.10;;
19179;SDS011;9722;48.754;8.868;2024-01-30T12:51:15;5.60;;;5.07;;
19179;SDS011;9722;48.754;8.868;2024-01-30T12:54:35;6.67;;;5.17;;
19179;SDS011;9722;48.754;8.868;2024-01-30T12:57:56;5.73;;;5.23;;
19179;SDS011;9722;48.754;8.868;2024-01-30T13:01:16;6.80;;;6.17;;
19179;SDS011;9722;48.754;8.868;2024-01-30T13:04:37;6.60;;;6.10;;
19179;SDS011;9722;48.754;8.868;2024-01-30T13:07:57;6.80;;;6.07;;
19179;SDS011;9722;48.754;8.868;2024-01-30T13:11:18;6.70;;;6.20;;
19179;SDS011;9722;48.754;8.868;2024-01-30T13:14:39;6.20;;;5.60;;
19179;SDS011;9722;48.754;8.868;2024-01-30T13:17:59;6.47;;;5.20;;
19179;SDS011;9722;48.754;8.868;2024-01-30T13:21:20;5.33;;;4.87;;
19179;SDS011;9722;48.754;8.868;2024-01-30T13:24:40;5.77;;;5.27;;
19179;SDS011;9722;48.754;8.868;2024-01-30T13:28:01;5.20;;;4.70;;
19179;SDS011;9722;48.754;8.868;2024-01-30T13:31:22;6.77;;;5.07;;
19179;SDS011;9722;48.754;8.868;2024-01-30T13:34:43;4.87;;;4.50;;
19179;SDS011;9722;48.754;8.868;2024-01-30T13:38:03;4.93;;;3.93;;
19179;SDS011;9722;48.754;8.868;2024-01-30T13:41:24;5.47;;;4.97;;
19179;SDS011;9722;48.754;8.868;2024-01-30T13:44:44;5.00;;;4.50;;
19179;SDS011;9722;48.754;8.868;2024-01-30T13:48:05;4.43;;;4.03;;
19179;SDS011;9722;48.754;8.868;2024-01-30T13:51:26;3.90;;;3.60;;
19179;SDS011;9722;48.754;8.868;2024-01-30T13:54:46;4.27;;;3.87;;
19179;SDS011;9722;48.754;8.868;2024-01-30T13:58:07;4.60;;;4.20;;
19179;SDS011;9722;48.754;8.868;2024-01-30T14:01:28;4.93;;;3.77;;
19179;SDS011;9722;48.754;8.868;2024-01-30T14:04:48;4.07;;;3.60;;
19179;SDS011;9722;48.754;8.868;2024-01-30T14:08:09;4.63;;;4.20;;
19179;SDS011;9722;48.754;8.868;2024-01-30T14:11:29;4.30;;;3.97;;
19179;SDS011;9722;48.754;8.868;2024-01-30T14:14:50;4.30;;;3.87;;
19179;SDS011;9722;48.754;8.868;2024-01-30T14:18:10;3.20;;;2.90;;
19179;SDS011;9722;48.754;8.868;2024-01-30T14:21:31;3.50;;;3.30;;
19179;SDS011;9722;48.754;8.868;2024-01-30T14:24:51;3.80;;;2.80;;
19179;SDS011;9722;48.754;8.868;2024-01-30T14:28:12;2.63;;;2.37;;
19179;SDS011;9722;48.754;8.868;2024-01-30T14:31:32;2.27;;;2.03;;
19179;SDS011;9722;48.754;8.868;2024-01-30T14:34:53;2.10;;;1.90;;
19179;SDS011;9722;48.754;8.868;2024-01-30T14:38:13;1.90;;;1.73;;
19179;SDS011;9722;48.754;8.868;2024-01-30T14:41:34;3.03;;;1.90;;
19179;SDS011;9722;48.754;8.868;2024-01-30T14:44:54;3.87;;;2.37;;
19179;SDS011;9722;48.754;8.868;2024-01-30T14:48:16;3.20;;;1.87;;
19179;SDS011;9722;48.754;8.868;2024-01-30T14:51:36;4.20;;;1.73;;
19179;SDS011;9722;48.754;8.868;2024-01-30T14:54:57;4.50;;;2.20;;
19179;SDS011;9722;48.754;8.868;2024-01-30T14:58:18;3.93;;;1.80;;
19179;SDS011;9722;48.754;8.868;2024-01-30T15:01:38;3.07;;;1.90;;
19179;SDS011;9722;48.754;8.868;2024-01-30T15:04:59;2.97;;;1.93;;
19179;SDS011;9722;48.754;8.868;2024-01-30T15:08:20;2.27;;;2.07;;
19179;SDS011;9722;48.754;8.868;2024-01-30T15:11:41;3.20;;;1.90;;
19179;SDS011;9722;48.754;8.868;2024-01-30T15:15:02;2.10;;;1.90;;
19179;SDS011;9722;48.754;8.868;2024-01-30T15:18:23;2.93;;;2.10;;
19179;SDS011;9722;48.754;8.868;2024-01-30T15:21:43;3.10;;;2.53;;
19179;SDS011;9722;48.754;8.868;2024-01-30T15:25:04;3.50;;;2.33;;
19179;SDS011;9722;48.754;8.868;2024-01-30T15:28:35;3.63;;;3.30;;
19179;SDS011;9722;48.754;8.868;2024-01-30T15:31:57;4.90;;;4.40;;
19179;SDS011;9722;48.754;8.868;2024-01-30T15:35:17;5.57;;;4.37;;
19179;SDS011;9722;48.754;8.868;2024-01-30T15:38:38;8.80;;;7.30;;
19179;SDS011;9722;48.754;8.868;2024-01-30T15:41:58;9.07;;;6.43;;
19179;SDS011;9722;48.754;8.868;2024-01-30T15:45:19;14.47;;;9.80;;
19179;SDS011;9722;48.754;8.868;2024-01-30T15:48:39;10.37;;;8.10;;
19179;SDS011;9722;48.754;8.868;2024-01-30T15:52:00;4.97;;;4.13;;
19179;SDS011;9722;48.754;8.868;2024-01-30T15:55:21;6.10;;;3.73;;
19179;SDS011;9722;48.754;8.868;2024-01-30T15:58:41;7.57;;;6.23;;
19179;SDS011;9722;48.754;8.868;2024-01-30T16:02:02;7.53;;;5.80;;
19179;SDS011;9722;48.754;8.868;2024-01-30T16:05:23;5.87;;;4.67;;
19179;SDS011;9722;48.754;8.868;2024-01-30T16:08:43;4.03;;;3.37;;
19179;SDS011;9722;48.754;8.868;2024-01-30T16:12:04;7.47;;;5.00;;
19179;SDS011;9722;48.754;8.868;2024-01-30T16:15:25;6.87;;;4.10;;
19179;SDS011;9722;48.754;8.868;2024-01-30T16:18:45;7.40;;;5.80;;
19179;SDS011;9722;48.754;8.868;2024-01-30T16:22:06;8.80;;;8.00;;
19179;SDS011;9722;48.754;8.868;2024-01-30T16:25:26;6.97;;;6.33;;
19179;SDS011;9722;48.754;8.868;2024-01-30T16:28:47;9.90;;;6.80;;
19179;SDS011;9722;48.754;8.868;2024-01-30T16:32:07;9.63;;;8.27;;
19179;SDS011;9722;48.754;8.868;2024-01-30T16:35:28;6.67;;;4.97;;
19179;SDS011;9722;48.754;8.868;2024-01-30T16:38:49;7.27;;;6.63;;
19179;SDS011;9722;48.754;8.868;2024-01-30T16:42:09;8.47;;;6.60;;
19179;SDS011;9722;48.754;8.868;2024-01-30T16:45:31;5.43;;;4.83;;
19179;SDS011;9722;48.754;8.868;2024-01-30T16:48:51;8.73;;;5.40;;
19179;SDS011;9722;48.754;8.868;2024-01-30T16:52:12;5.87;;;4.93;;
19179;SDS011;9722;48.754;8.868;2024-01-30T16:55:32;6.67;;;6.07;;
19179;SDS011;9722;48.754;8.868;2024-01-30T16:58:53;10.13;;;7.50;;
19179;SDS011;9722;48.754;8.868;2024-01-30T17:02:13;12.83;;;6.57;;
19179;SDS011;9722;48.754;8.868;2024-01-30T17:05:34;8.57;;;6.03;;
19179;SDS011;9722;48.754;8.868;2024-01-30T17:08:55;6.87;;;5.70;;
19179;SDS011;9722;48.754;8.868;2024-01-30T17:12:15;9.27;;;5.57;;
19179;SDS011;9722;48.754;8.868;2024-01-30T17:15:36;10.80;;;7.83;;
19179;SDS011;9722;48.754;8.868;2024-01-30T17:18:57;14.40;;;10.83;;
19179;SDS011;9722;48.754;8.868;2024-01-30T17:22:17;10.53;;;8.90;;
19179;SDS011;9722;48.754;8.868;2024-01-30T17:25:38;12.23;;;10.17;;
19179;SDS011;9722;48.754;8.868;2024-01-30T17:28:59;17.57;;;11.10;;
19179;SDS011;9722;48.754;8.868;2024-01-30T17:32:19;8.60;;;7.23;;
19179;SDS011;9722;48.754;8.868;2024-01-30T17:35:40;5.63;;;5.10;;
19179;SDS011;9722;48.754;8.868;2024-01-30T17:39:00;7.80;;;4.00;;
19179;SDS011;9722;48.754;8.868;2024-01-30T17:42:21;4.40;;;3.63;;
19179;SDS011;9722;48.754;8.868;2024-01-30T17:45:41;4.13;;;3.73;;
19179;SDS011;9722;48.754;8.868;2024-01-30T17:49:02;10.83;;;7.77;;
19179;SDS011;9722;48.754;8.868;2024-01-30T17:52:24;16.67;;;8.80;;
19179;SDS011;9722;48.754;8.868;2024-01-30T17:55:44;7.33;;;6.47;;
19179;SDS011;9722;48.754;8.868;2024-01-30T17:59:05;8.60;;;5.10;;
19179;SDS011;9722;48.754;8.868;2024-01-30T18:02:25;5.33;;;4.83;;
19179;SDS011;9722;48.754;8.868;2024-01-30T18:05:46;5.40;;;4.73;;
19179;SDS011;9722;48.754;8.868;2024-01-30T18:09:06;5.83;;;5.17;;
19179;SDS011;9722;48.754;8.868;2024-01-30T18:12:27;6.40;;;4.97;;
19179;SDS011;9722;48.754;8.868;2024-01-30T18:15:47;5.80;;;5.30;;
19179;SDS011;9722;48.754;8.868;2024-01-30T18:19:08;7.60;;;6.90;;
19179;SDS011;9722;48.754;8.868;2024-01-30T18:22:28;6.00;;;5.10;;
19179;SDS011;9722;48.754;8.868;2024-01-30T18:25:49;4.37;;;4.00;;
19179;SDS011;9722;48.754;8.868;2024-01-30T18:29:10;6.33;;;4.00;;
19179;SDS011;9722;48.754;8.868;2024-01-30T18:32:30;5.90;;;5.23;;
19179;SDS011;9722;48.754;8.868;2024-01-30T18:35:51;4.07;;;3.20;;
19179;SDS011;9722;48.754;8.868;2024-01-30T18:39:11;4.73;;;4.33;;
19179;SDS011;9722;48.754;8.868;2024-01-30T18:42:31;4.40;;;3.80;;
19179;SDS011;9722;48.754;8.868;2024-01-30T18:45:53;6.03;;;4.40;;
19179;SDS011;9722;48.754;8.868;2024-01-30T18:49:14;6.13;;;5.63;;
19179;SDS011;9722;48.754;8.868;2024-01-30T18:52:34;9.33;;;7.83;;
19179;SDS011;9722;48.754;8.868;2024-01-30T18:55:55;6.97;;;5.33;;
19179;SDS011;9722;48.754;8.868;2024-01-30T18:59:15;6.57;;;5.20;;
19179;SDS011;9722;48.754;8.868;2024-01-30T19:02:38;8.80;;;7.80;;
19179;SDS011;9722;48.754;8.868;2024-01-30T19:05:58;8.20;;;6.43;;
19179;SDS011;9722;48.754;8.868;2024-01-30T19:09:20;6.17;;;5.23;;
19179;SDS011;9722;48.754;8.868;2024-01-30T19:12:41;5.50;;;4.90;;
19179;SDS011;9722;48.754;8.868;2024-01-30T19:16:02;5.97;;;4.27;;
19179;SDS011;9722;48.754;8.868;2024-01-30T19:19:23;5.33;;;4.37;;
19179;SDS011;9722;48.754;8.868;2024-01-30T19:22:44;5.67;;;5.17;;
19179;SDS011;9722;48.754;8.868;2024-01-30T19:26:04;6.07;;;4.40;;
19179;SDS011;9722;48.754;8.868;2024-01-30T19:29:25;6.20;;;5.03;;
19179;SDS011;9722;48.754;8.868;2024-01-30T19:32:45;5.70;;;5.10;;
19179;SDS011;9722;48.754;8.868;2024-01-30T19:36:06;6.03;;;5.23;;
19179;SDS011;9722;48.754;8.868;2024-01-30T19:39:27;9.87;;;7.00;;
19179;SDS011;9722;48.754;8.868;2024-01-30T19:42:48;8.50;;;7.27;;
19179;SDS011;9722;48.754;8.868;2024-01-30T19:46:11;9.17;;;8.10;;
19179;SDS011;9722;48.754;8.868;2024-01-30T19:49:31;12.70;;;9.80;;
19179;SDS011;9722;48.754;8.868;2024-01-30T19:52:52;9.37;;;6.30;;
19179;SDS011;9722;48.754;8.868;2024-01-30T19:56:13;11.80;;;9.50;;
19179;SDS011;9722;48.754;8.868;2024-01-30T19:59:34;7.03;;;6.43;;
19179;SDS011;9722;48.754;8.868;2024-01-30T20:02:55;7.30;;;6.40;;
19179;SDS011;9722;48.754;8.868;2024-01-30T20:06:15;6.50;;;5.57;;
19179;SDS011;9722;48.754;8.868;2024-01-30T20:09:36;5.30;;;4.80;;
19179;SDS011;9722;48.754;8.868;2024-01-30T20:12:56;8.97;;;6.93;;
19179;SDS011;9722;48.754;8.868;2024-01-30T20:16:17;11.80;;;9.77;;
19179;SDS011;9722;48.754;8.868;2024-01-30T20:19:37;15.17;;;13.63;;
19179;SDS011;9722;48.754;8.868;2024-01-30T20:22:58;10.93;;;9.87;;
19179;SDS011;9722;48.754;8.868;2024-01-30T20:26:18;9.50;;;7.83;;